createdAt,value
2019-02-26T00:01:07.248Z,4.90
2019-02-26T00:03:36.287Z,5.00
2019-02-26T00:06:05.280Z,5.10
2019-02-26T00:08:34.393Z,5.00
2019-02-26T00:11:03.751Z,5.00
2019-02-26T00:13:36.422Z,4.90
2019-02-26T00:16:07.587Z,4.90
2019-02-26T00:18:35.486Z,4.80
2019-02-26T00:21:05.002Z,4.80
2019-02-26T00:23:34.114Z,4.70
2019-02-26T00:26:03.151Z,4.70
2019-02-26T00:28:34.054Z,4.80
2019-02-26T00:31:03.776Z,4.90
2019-02-26T00:33:33.639Z,4.90
2019-02-26T00:36:04.404Z,4.90
2019-02-26T00:38:35.329Z,4.90
2019-02-26T00:41:05.963Z,4.80
2019-02-26T00:43:36.731Z,4.60
2019-02-26T00:46:06.217Z,4.60
2019-02-26T00:48:36.608Z,4.60
2019-02-26T00:51:06.778Z,4.60
2019-02-26T00:53:35.855Z,4.70
2019-02-26T00:56:05.619Z,4.70
2019-02-26T00:58:38.861Z,4.70
2019-02-26T01:01:08.219Z,4.80
2019-02-26T01:03:36.664Z,4.80
2019-02-26T01:06:06.318Z,4.80
2019-02-26T01:08:37.937Z,4.90
2019-02-26T01:11:08.314Z,4.90
2019-02-26T01:13:37.524Z,4.90
2019-02-26T01:16:06.729Z,4.90
2019-02-26T01:18:35.755Z,4.80
2019-02-26T01:21:04.781Z,4.80
2019-02-26T01:23:33.786Z,4.70
2019-02-26T01:26:02.805Z,4.80
2019-02-26T01:28:31.836Z,4.70
2019-02-26T01:31:02.586Z,4.70
2019-02-26T01:33:32.126Z,4.50
2019-02-26T01:36:02.701Z,4.50
2019-02-26T01:38:32.269Z,4.50
2019-02-26T01:41:01.277Z,4.40
2019-02-26T01:43:30.271Z,4.30
2019-02-26T01:45:59.639Z,4.30
2019-02-26T01:48:29.910Z,4.30
2019-02-26T01:51:00.825Z,4.20
2019-02-26T01:53:29.930Z,4.20
2019-02-26T01:55:58.947Z,4.30
2019-02-26T01:58:28.008Z,4.20
2019-02-26T02:00:57.247Z,4.30
2019-02-26T02:03:27.819Z,4.20
2019-02-26T02:05:56.835Z,4.20
2019-02-26T02:08:25.839Z,4.10
2019-02-26T02:10:57.135Z,4.20
2019-02-26T02:13:28.257Z,4.30
2019-02-26T02:15:57.600Z,4.30
2019-02-26T02:18:29.358Z,4.30
2019-02-26T02:20:57.514Z,4.30
2019-02-26T02:23:28.098Z,4.30
2019-02-26T02:25:59.648Z,4.30
2019-02-26T02:28:28.610Z,4.30
2019-02-26T02:30:58.206Z,4.40
2019-02-26T02:33:29.607Z,4.50
2019-02-26T02:35:58.084Z,4.60
2019-02-26T02:38:27.043Z,4.70
2019-02-26T02:40:56.029Z,4.80
2019-02-26T02:43:25.104Z,4.90
2019-02-26T02:45:56.370Z,4.90
2019-02-26T02:48:24.986Z,5.00
2019-02-26T02:50:53.971Z,5.00
2019-02-26T02:53:23.910Z,5.00
2019-02-26T02:55:53.705Z,4.90
2019-02-26T02:58:23.904Z,4.90
2019-02-26T03:00:54.235Z,4.80
2019-02-26T03:03:24.206Z,4.70
2019-02-26T03:05:53.177Z,4.60
2019-02-26T03:08:22.616Z,4.50
2019-02-26T03:10:51.706Z,4.40
2019-02-26T03:13:22.908Z,4.30
2019-02-26T03:15:53.546Z,4.30
2019-02-26T03:18:21.852Z,4.20
2019-02-26T03:20:51.946Z,4.10
2019-02-26T03:23:21.700Z,4.00
2019-02-26T03:25:52.923Z,4.00
2019-02-26T03:28:21.463Z,4.00
2019-02-26T03:30:50.453Z,3.90
2019-02-26T03:33:19.478Z,3.90
2019-02-26T03:35:48.898Z,3.90
2019-02-26T03:38:20.636Z,3.80
2019-02-26T03:40:49.315Z,3.70
2019-02-26T03:43:19.277Z,3.70
2019-02-26T03:45:48.555Z,3.60
2019-02-26T03:48:20.382Z,3.60
2019-02-26T03:50:48.139Z,3.50
2019-02-26T03:53:17.120Z,3.50
2019-02-26T03:55:46.115Z,3.40
2019-02-26T03:58:15.476Z,3.40
2019-02-26T04:00:46.755Z,3.40
2019-02-26T04:03:17.295Z,3.30
2019-02-26T04:05:45.556Z,3.20
2019-02-26T04:08:16.353Z,3.20
2019-02-26T04:10:47.230Z,3.10
2019-02-26T04:13:15.959Z,3.10
2019-02-26T04:15:45.091Z,3.00
2019-02-26T04:18:14.053Z,3.00
2019-02-26T04:20:44.336Z,3.00
2019-02-26T04:23:16.245Z,3.00
2019-02-26T04:25:57.618Z,2.90
2019-02-26T04:28:33.151Z,2.90
2019-02-26T04:31:03.860Z,2.80
2019-02-26T04:34:08.272Z,2.80
2019-02-26T04:36:55.250Z,2.80
2019-02-26T04:39:49.883Z,2.80
2019-02-26T04:42:35.155Z,2.90
2019-02-26T04:45:13.459Z,2.90
2019-02-26T04:47:57.017Z,2.90
2019-02-26T04:50:28.728Z,3.00
2019-02-26T04:52:58.678Z,3.10
2019-02-26T04:55:29.029Z,3.10
2019-02-26T04:57:56.538Z,3.20
2019-02-26T05:00:27.753Z,3.30
2019-02-26T05:02:56.012Z,3.40
2019-02-26T05:05:25.878Z,3.40
2019-02-26T05:07:55.742Z,3.40
2019-02-26T05:10:27.027Z,3.50
2019-02-26T05:12:57.247Z,3.50
2019-02-26T05:15:26.490Z,3.40
2019-02-26T05:17:56.310Z,3.30
2019-02-26T05:20:25.278Z,3.20
2019-02-26T05:23:00.031Z,3.10
2019-02-26T05:25:26.455Z,3.10
2019-02-26T05:27:55.654Z,3.00
2019-02-26T05:30:24.633Z,2.90
2019-02-26T05:32:56.627Z,2.80
2019-02-26T05:35:25.270Z,2.80
2019-02-26T05:37:56.195Z,2.70
2019-02-26T05:40:25.041Z,2.70
2019-02-26T05:42:56.133Z,2.60
2019-02-26T05:45:26.584Z,2.60
2019-02-26T05:47:58.646Z,2.60
2019-02-26T05:50:29.557Z,2.50
2019-02-26T05:53:01.697Z,2.50
2019-02-26T05:55:28.812Z,2.50
2019-02-26T05:57:57.785Z,2.50
2019-02-26T06:00:32.335Z,2.50
2019-02-26T06:02:57.401Z,2.50
2019-02-26T06:05:26.422Z,2.50
2019-02-26T06:07:55.670Z,2.50
2019-02-26T06:10:27.042Z,2.50
2019-02-26T06:12:55.170Z,2.50
2019-02-26T06:15:25.955Z,2.40
2019-02-26T06:17:55.987Z,2.40
2019-02-26T06:20:28.085Z,2.50
2019-02-26T06:22:55.517Z,2.50
2019-02-26T06:25:24.774Z,2.60
2019-02-26T06:27:54.014Z,2.70
2019-02-26T06:30:23.006Z,2.70
2019-02-26T06:32:51.987Z,2.70
2019-02-26T06:35:20.952Z,2.70
2019-02-26T06:37:49.958Z,2.80
2019-02-26T06:40:18.949Z,2.90
2019-02-26T06:42:48.160Z,3.00
2019-02-26T06:45:17.226Z,3.10
2019-02-26T06:47:48.544Z,3.20
2019-02-26T06:50:18.886Z,3.30
2019-02-26T06:52:49.981Z,3.40
2019-02-26T06:55:18.139Z,3.60
2019-02-26T06:57:50.910Z,3.50
2019-02-26T07:00:21.746Z,3.60
2019-02-26T07:02:49.678Z,3.60
2019-02-26T07:05:18.861Z,3.60
2019-02-26T07:07:47.985Z,3.60
2019-02-26T07:10:21.476Z,3.50
2019-02-26T07:12:50.069Z,3.50
2019-02-26T07:15:18.163Z,3.50
2019-02-26T07:17:49.435Z,3.50
2019-02-26T07:20:19.973Z,3.70
2019-02-26T07:22:51.369Z,3.80
2019-02-26T07:25:19.448Z,3.90
2019-02-26T07:27:48.666Z,4.00
2019-02-26T07:30:17.696Z,4.20
2019-02-26T07:32:48.246Z,4.20
2019-02-26T07:35:17.383Z,4.20
2019-02-26T07:37:46.347Z,4.20
2019-02-26T07:40:16.106Z,4.30
2019-02-26T07:42:46.747Z,4.70
2019-02-26T07:45:19.738Z,4.80
2019-02-26T07:47:49.135Z,4.90
2019-02-26T07:50:17.946Z,5.10
2019-02-26T07:52:47.844Z,5.40
2019-02-26T07:55:17.642Z,5.50
2019-02-26T07:57:48.917Z,5.40
2019-02-26T08:00:23.378Z,5.60
2019-02-26T08:02:56.425Z,5.80
2019-02-26T08:05:25.712Z,5.90
2019-02-26T08:07:56.292Z,6.10
2019-02-26T08:10:24.168Z,6.20
2019-02-26T08:12:53.129Z,6.30
2019-02-26T08:15:22.147Z,6.40
2019-02-26T08:17:55.393Z,6.50
2019-02-26T08:20:21.607Z,6.60
2019-02-26T08:22:51.663Z,6.70
2019-02-26T08:25:21.163Z,6.90
2019-02-26T08:27:52.136Z,7.00
2019-02-26T08:30:23.407Z,6.80
2019-02-26T08:32:53.643Z,7.00
2019-02-26T08:35:22.109Z,7.10
2019-02-26T08:37:51.081Z,7.30
2019-02-26T08:40:20.274Z,7.30
2019-02-26T08:42:49.581Z,7.40
2019-02-26T08:45:23.619Z,7.50
2019-02-26T08:47:53.153Z,7.70
2019-02-26T08:50:22.118Z,7.80
2019-02-26T08:52:53.528Z,7.70
2019-02-26T08:55:24.501Z,7.70
2019-02-26T08:57:53.981Z,7.90
2019-02-26T09:00:23.207Z,8.00
2019-02-26T09:02:54.468Z,7.90
2019-02-26T09:05:23.940Z,8.00
2019-02-26T09:07:53.286Z,8.10
2019-02-26T09:10:23.359Z,8.10
2019-02-26T09:12:52.590Z,8.20
2019-02-26T09:15:22.215Z,8.10
2019-02-26T09:17:51.171Z,8.20
2019-02-26T09:20:21.078Z,8.30
2019-02-26T09:22:51.420Z,8.30
2019-02-26T09:25:25.587Z,8.50
2019-02-26T09:27:52.388Z,8.60
2019-02-26T09:30:21.473Z,8.70
2019-02-26T09:32:52.410Z,8.70
2019-02-26T09:35:25.245Z,8.80
2019-02-26T09:37:53.354Z,8.80
2019-02-26T09:40:23.742Z,8.90
2019-02-26T09:42:55.140Z,8.90
2019-02-26T09:45:30.015Z,9.00
2019-02-26T09:47:58.319Z,9.10
2019-02-26T09:50:27.662Z,9.20
2019-02-26T09:52:59.001Z,9.30
2019-02-26T09:55:27.203Z,9.30
2019-02-26T09:57:56.530Z,9.40
2019-02-26T10:00:28.657Z,9.60
2019-02-26T10:02:56.022Z,9.60
2019-02-26T10:05:24.993Z,9.60
2019-02-26T10:07:56.852Z,9.70
2019-02-26T10:10:26.038Z,9.80
2019-02-26T10:12:57.330Z,9.90
2019-02-26T10:15:26.335Z,9.90
2019-02-26T10:17:58.258Z,10.10
2019-02-26T10:20:29.658Z,10.00
2019-02-26T10:23:00.429Z,9.90
2019-02-26T10:25:31.084Z,9.80
2019-02-26T10:28:03.022Z,10.00
2019-02-26T10:30:31.444Z,10.20
2019-02-26T10:33:02.793Z,10.50
2019-02-26T10:35:33.189Z,10.50
2019-02-26T10:38:03.650Z,10.60
2019-02-26T10:40:35.705Z,10.60
2019-02-26T10:43:02.450Z,10.50
2019-02-26T10:45:36.071Z,10.50
2019-02-26T10:48:02.461Z,10.60
2019-02-26T10:50:32.085Z,10.40
2019-02-26T10:53:07.189Z,10.50
2019-02-26T10:55:38.336Z,10.60
2019-02-26T10:58:06.832Z,10.60
2019-02-26T11:00:35.326Z,10.70
2019-02-26T11:03:03.847Z,10.80
2019-02-26T11:05:32.895Z,10.90
2019-02-26T11:08:05.316Z,11.00
2019-02-26T11:10:32.404Z,10.70
2019-02-26T11:13:01.430Z,10.50
2019-02-26T11:15:33.412Z,10.60
2019-02-26T11:18:01.163Z,10.50
2019-02-26T11:20:31.003Z,10.70
2019-02-26T11:23:00.949Z,10.60
2019-02-26T11:25:29.915Z,10.60
2019-02-26T11:28:00.609Z,10.80
2019-02-26T11:30:32.105Z,10.90
2019-02-26T11:33:03.124Z,10.90
2019-02-26T11:35:31.035Z,10.90
2019-02-26T11:38:00.010Z,11.00
2019-02-26T11:40:30.639Z,11.10
2019-02-26T11:43:00.345Z,11.50
2019-02-26T11:45:32.243Z,11.70
2019-02-26T11:48:03.422Z,11.70
2019-02-26T11:50:31.700Z,11.80
2019-02-26T11:53:02.313Z,11.80
2019-02-26T11:55:32.404Z,11.90
2019-02-26T11:58:05.653Z,12.00
2019-02-26T12:00:39.350Z,12.10
2019-02-26T12:03:08.029Z,12.20
2019-02-26T12:05:39.596Z,12.10
2019-02-26T12:08:07.575Z,12.20
2019-02-26T12:10:37.828Z,12.10
2019-02-26T12:13:07.102Z,12.20
2019-02-26T12:15:38.884Z,12.40
2019-02-26T12:18:06.733Z,12.40
2019-02-26T12:20:37.959Z,12.50
2019-02-26T12:23:07.978Z,12.60
2019-02-26T12:25:36.793Z,12.60
2019-02-26T12:28:08.155Z,12.60
2019-02-26T12:30:37.674Z,12.70
2019-02-26T12:33:09.189Z,12.70
2019-02-26T12:35:38.294Z,12.70
2019-02-26T12:38:18.288Z,12.80
2019-02-26T12:40:41.136Z,12.80
2019-02-26T12:43:11.840Z,12.80
2019-02-26T12:45:40.726Z,12.90
2019-02-26T12:48:12.522Z,13.00
2019-02-26T12:50:40.710Z,13.10
2019-02-26T12:53:12.619Z,13.00
2019-02-26T12:55:42.419Z,12.90
2019-02-26T12:58:14.343Z,13.10
2019-02-26T13:00:42.304Z,13.20
2019-02-26T13:03:12.689Z,13.10
2019-02-26T13:05:43.570Z,13.20
2019-02-26T13:08:15.997Z,13.30
2019-02-26T13:10:49.590Z,13.30
2019-02-26T13:13:20.022Z,13.20
2019-02-26T13:15:49.117Z,13.40
2019-02-26T13:18:18.360Z,13.50
2019-02-26T13:20:52.054Z,13.50
2019-02-26T13:23:20.516Z,13.50
2019-02-26T13:25:49.021Z,13.60
2019-02-26T13:28:18.253Z,13.60
2019-02-26T13:30:47.237Z,13.60
2019-02-26T13:33:18.090Z,13.70
2019-02-26T13:35:51.059Z,13.80
2019-02-26T13:38:24.122Z,13.80
2019-02-26T13:40:48.214Z,13.60
2019-02-26T13:43:17.181Z,13.60
2019-02-26T13:45:46.183Z,13.60
2019-02-26T13:48:15.226Z,13.60
2019-02-26T13:50:44.247Z,13.60
2019-02-26T13:53:13.224Z,13.60
2019-02-26T13:55:42.451Z,13.70
2019-02-26T13:59:35.869Z,13.70
2019-02-26T14:00:42.117Z,13.70
2019-02-26T14:03:11.829Z,13.60
2019-02-26T14:05:40.783Z,13.70
2019-02-26T14:08:09.850Z,13.70
2019-02-26T14:10:39.156Z,13.70
2019-02-26T14:13:08.183Z,13.70
2019-02-26T14:15:37.421Z,13.60
2019-02-26T14:18:06.431Z,13.70
2019-02-26T14:20:35.397Z,13.70
2019-02-26T14:23:04.750Z,13.60
2019-02-26T14:25:33.729Z,13.60
2019-02-26T14:28:03.065Z,13.70
2019-02-26T14:30:32.074Z,13.60
2019-02-26T14:33:01.197Z,13.60
2019-02-26T14:35:30.242Z,13.70
2019-02-26T14:37:59.257Z,13.70
2019-02-26T14:40:28.276Z,13.80
2019-02-26T14:42:57.602Z,13.60
2019-02-26T14:45:28.324Z,13.70
2019-02-26T14:47:57.383Z,13.70
2019-02-26T14:50:27.727Z,13.70
2019-02-26T14:52:56.907Z,13.60
2019-02-26T14:55:25.945Z,13.60
2019-02-26T14:57:54.937Z,13.60
2019-02-26T15:00:31.798Z,13.60
2019-02-26T15:03:00.798Z,13.60
2019-02-26T15:05:29.868Z,13.60
2019-02-26T15:07:59.450Z,13.50
2019-02-26T15:10:28.814Z,13.60
2019-02-26T15:13:03.375Z,13.60
2019-02-26T15:15:32.433Z,13.60
2019-02-26T15:18:01.404Z,13.60
2019-02-26T15:20:30.809Z,13.70
2019-02-26T15:22:59.819Z,13.80
2019-02-26T15:25:32.653Z,13.70
2019-02-26T15:28:05.173Z,13.70
2019-02-26T15:30:32.699Z,13.60
2019-02-26T15:33:10.548Z,13.60
2019-02-26T15:35:33.156Z,13.60
2019-02-26T15:38:02.492Z,13.70
2019-02-26T15:40:33.313Z,13.60
2019-02-26T15:43:03.265Z,13.60
2019-02-26T15:45:32.979Z,13.50
2019-02-26T15:48:04.018Z,13.50
2019-02-26T15:50:34.923Z,13.40
2019-02-26T15:53:07.254Z,13.50
2019-02-26T15:55:36.426Z,13.30
2019-02-26T15:58:06.866Z,13.20
2019-02-26T16:00:37.976Z,13.10
2019-02-26T16:03:06.919Z,13.10
2019-02-26T16:05:40.477Z,13.20
2019-02-26T16:08:11.772Z,13.10
2019-02-26T16:10:43.195Z,13.10
2019-02-26T16:13:12.250Z,13.20
2019-02-26T16:15:41.547Z,13.30
2019-02-26T16:18:14.999Z,13.30
2019-02-26T16:20:47.034Z,13.30
2019-02-26T16:23:16.185Z,13.10
2019-02-26T16:25:45.191Z,13.00
2019-02-26T16:28:14.455Z,13.00
2019-02-26T16:30:43.395Z,12.90
2019-02-26T16:33:13.731Z,12.70
2019-02-26T16:35:43.435Z,12.50
2019-02-26T16:38:14.133Z,12.70
2019-02-26T16:40:44.595Z,12.50
2019-02-26T16:43:14.845Z,12.40
2019-02-26T16:45:44.501Z,12.30
2019-02-26T16:48:13.494Z,12.20
2019-02-26T16:50:45.459Z,12.10
2019-02-26T16:53:14.123Z,12.00
2019-02-26T16:55:43.181Z,11.90
2019-02-26T16:58:13.228Z,11.80
2019-02-26T17:00:44.095Z,11.70
2019-02-26T17:03:15.010Z,11.60
2019-02-26T17:05:47.441Z,11.50
2019-02-26T17:08:14.814Z,11.40
2019-02-26T17:10:44.084Z,11.20
2019-02-26T17:13:13.171Z,11.20
2019-02-26T17:15:42.258Z,11.00
2019-02-26T17:18:11.617Z,10.90
2019-02-26T17:20:41.764Z,10.80
2019-02-26T17:23:13.617Z,10.80
2019-02-26T17:25:41.663Z,10.70
2019-02-26T17:28:12.345Z,10.70
2019-02-26T17:30:41.272Z,10.50
2019-02-26T17:33:13.212Z,10.40
2019-02-26T17:35:40.869Z,10.30
2019-02-26T17:38:09.854Z,10.20
2019-02-26T17:40:38.850Z,10.10
2019-02-26T17:43:07.839Z,10.00
2019-02-26T17:45:37.895Z,10.00
2019-02-26T17:48:07.675Z,9.90
2019-02-26T17:50:38.083Z,9.80
2019-02-26T17:53:07.369Z,9.90
2019-02-26T17:55:36.318Z,9.80
2019-02-26T17:58:09.492Z,9.70
2019-02-26T18:00:37.413Z,9.70
2019-02-26T18:03:07.616Z,9.70
2019-02-26T18:05:40.513Z,9.60
2019-02-26T18:08:07.432Z,9.60
2019-02-26T18:10:36.728Z,9.50
2019-02-26T18:13:05.967Z,9.50
2019-02-26T18:15:34.936Z,9.40
2019-02-26T18:18:03.931Z,9.30
2019-02-26T18:20:32.873Z,9.30
2019-02-26T18:23:02.096Z,9.30
2019-02-26T18:25:31.052Z,9.40
2019-02-26T18:28:00.049Z,9.50
2019-02-26T18:30:30.124Z,9.50
2019-02-26T18:32:59.355Z,9.50
2019-02-26T18:35:28.419Z,9.50
2019-02-26T18:37:57.388Z,9.60
2019-02-26T18:40:28.290Z,9.50
2019-02-26T18:42:56.946Z,9.50
2019-02-26T18:45:29.918Z,9.30
2019-02-26T18:47:58.881Z,9.30
2019-02-26T18:50:29.468Z,9.20
2019-02-26T18:52:58.752Z,9.20
2019-02-26T18:55:30.238Z,9.10
2019-02-26T18:57:58.707Z,8.90
2019-02-26T19:00:30.478Z,8.80
2019-02-26T19:02:59.504Z,8.70
2019-02-26T19:05:28.456Z,8.60
2019-02-26T19:07:57.418Z,8.60
2019-02-26T19:10:26.430Z,8.60
2019-02-26T19:12:55.709Z,8.60
2019-02-26T19:15:30.162Z,8.50
2019-02-26T19:18:02.014Z,8.50
2019-02-26T19:20:38.760Z,8.40
2019-02-26T19:23:07.734Z,8.40
2019-02-26T19:25:36.700Z,8.30
2019-02-26T19:28:05.996Z,8.30
2019-02-26T19:30:37.006Z,8.20
2019-02-26T19:33:05.882Z,8.20
2019-02-26T19:35:40.034Z,8.20
2019-02-26T19:38:06.052Z,8.20
2019-02-26T19:40:46.967Z,8.10
2019-02-26T19:43:16.152Z,8.10
2019-02-26T19:45:45.385Z,8.10
2019-02-26T19:48:14.378Z,8.10
2019-02-26T19:50:47.908Z,8.00
2019-02-26T19:53:14.621Z,8.00
2019-02-26T19:55:50.028Z,8.00
2019-02-26T19:58:19.084Z,8.00
2019-02-26T20:00:48.087Z,8.00
2019-02-26T20:03:17.115Z,7.90
2019-02-26T20:05:47.146Z,7.90
2019-02-26T20:08:16.248Z,7.80
2019-02-26T20:10:48.040Z,7.80
2019-02-26T20:13:15.763Z,7.70
2019-02-26T20:15:45.139Z,7.70
2019-02-26T20:18:20.469Z,7.70
2019-02-26T20:20:45.953Z,7.60
2019-02-26T20:23:15.297Z,7.60
2019-02-26T20:25:44.329Z,7.50
2019-02-26T20:28:13.330Z,7.60
2019-02-26T20:30:42.296Z,7.50
2019-02-26T20:33:11.330Z,7.40
2019-02-26T20:35:40.329Z,7.40
2019-02-26T20:38:09.584Z,7.30
2019-02-26T20:40:38.547Z,7.30
2019-02-26T20:43:07.535Z,7.20
2019-02-26T20:45:37.066Z,7.10
2019-02-26T20:48:06.041Z,7.10
2019-02-26T20:50:35.009Z,7.00
2019-02-26T20:53:05.955Z,7.10
2019-02-26T20:55:34.521Z,7.00
2019-02-26T20:58:03.715Z,7.00
2019-02-26T21:00:32.780Z,7.00
2019-02-26T21:03:01.844Z,7.00
2019-02-26T21:05:30.780Z,7.00
2019-02-26T21:07:59.749Z,7.00
2019-02-26T21:10:28.978Z,7.00
2019-02-26T21:13:01.589Z,7.00
2019-02-26T21:15:29.006Z,7.00
2019-02-26T21:18:02.728Z,6.90
2019-02-26T21:20:31.248Z,7.00
2019-02-26T21:23:00.617Z,7.00
2019-02-26T21:25:30.029Z,7.10
2019-02-26T21:28:01.417Z,7.10
2019-02-26T21:30:29.620Z,7.00
2019-02-26T21:32:58.723Z,7.00
2019-02-26T21:35:28.934Z,7.00
2019-02-26T21:37:57.973Z,7.00
2019-02-26T21:40:26.937Z,6.90
2019-02-26T21:42:55.917Z,6.90
2019-02-26T21:45:24.915Z,6.80
2019-02-26T21:47:55.449Z,6.70
2019-02-26T21:50:25.111Z,6.60
2019-02-26T21:53:01.197Z,6.60
2019-02-26T21:55:24.566Z,6.50
2019-02-26T21:57:54.715Z,6.50
2019-02-26T22:00:27.406Z,6.50
2019-02-26T22:02:56.408Z,6.50
2019-02-26T22:05:25.987Z,6.50
2019-02-26T22:07:55.306Z,6.50
2019-02-26T22:10:24.313Z,6.40
2019-02-26T22:12:56.638Z,6.30
2019-02-26T22:15:26.655Z,6.30
2019-02-26T22:17:55.734Z,6.20
2019-02-26T22:20:35.782Z,6.20
2019-02-26T22:23:00.400Z,6.10
2019-02-26T22:25:29.186Z,6.10
2019-02-26T22:27:58.061Z,6.00
2019-02-26T22:30:27.038Z,5.90
2019-02-26T22:32:56.367Z,6.00
2019-02-26T22:35:26.383Z,6.00
2019-02-26T22:37:55.422Z,5.90
2019-02-26T22:40:28.900Z,5.90
2019-02-26T22:42:54.944Z,6.00
2019-02-26T22:45:27.993Z,5.90
2019-02-26T22:47:57.972Z,5.90
2019-02-26T22:50:27.228Z,6.00
2019-02-26T22:52:56.985Z,6.00
2019-02-26T22:55:25.936Z,6.00
2019-02-26T22:57:55.420Z,6.00
2019-02-26T23:00:37.788Z,6.00
2019-02-26T23:03:06.770Z,5.90
2019-02-26T23:05:35.735Z,5.90
2019-02-26T23:08:04.807Z,5.80
2019-02-26T23:10:33.781Z,5.90
2019-02-26T23:13:02.744Z,5.80
2019-02-26T23:15:32.045Z,5.80
2019-02-26T23:18:01.049Z,5.80
2019-02-26T23:20:30.040Z,5.80
2019-02-26T23:22:59.116Z,5.70
2019-02-26T23:25:28.403Z,5.70
2019-02-26T23:27:57.699Z,5.70
2019-02-26T23:30:27.175Z,5.80
2019-02-26T23:32:56.565Z,5.80
2019-02-26T23:35:25.581Z,5.80
2019-02-26T23:37:54.906Z,5.70
2019-02-26T23:40:24.927Z,5.60
2019-02-26T23:42:56.099Z,5.60
2019-02-26T23:45:27.004Z,5.60
2019-02-26T23:47:56.310Z,5.60
2019-02-26T23:50:25.293Z,5.60
2019-02-26T23:52:54.628Z,5.60
2019-02-26T23:55:23.896Z,5.60
2019-02-26T23:57:52.845Z,5.50
